createdAt,value
2023-03-23T16:00:21.065Z,7.93
2023-03-23T16:03:28.249Z,15.93
2023-03-23T16:06:33.367Z,7.22
2023-03-23T16:09:34.996Z,7.30
2023-03-23T16:12:40.303Z,7.20
2023-03-23T16:15:42.269Z,9.15
2023-03-23T16:18:44.352Z,8.48
2023-03-23T16:21:46.026Z,8.80
2023-03-23T16:24:47.689Z,9.00
2023-03-23T16:27:52.316Z,7.60
2023-03-23T16:30:57.458Z,7.88
2023-03-23T16:33:59.104Z,11.93
2023-03-23T16:37:01.163Z,10.20
2023-03-23T16:40:04.336Z,10.95
2023-03-23T16:43:09.168Z,9.70
2023-03-23T16:46:13.249Z,8.73
2023-03-23T16:49:14.897Z,9.30
2023-03-23T16:52:16.539Z,10.27
2023-03-23T16:55:18.287Z,12.75
2023-03-23T16:58:20.427Z,10.90
2023-03-23T17:01:22.163Z,10.90
2023-03-23T17:04:23.919Z,13.05
2023-03-23T17:07:25.685Z,10.50
2023-03-23T17:10:28.504Z,9.27
2023-03-23T17:13:30.465Z,11.87
2023-03-23T17:16:32.901Z,11.85
2023-03-23T17:19:35.986Z,9.00
2023-03-23T17:22:39.123Z,10.27
2023-03-23T17:25:41.038Z,13.77
2023-03-23T17:28:42.782Z,12.77
2023-03-23T17:31:44.808Z,14.27
2023-03-23T17:34:46.456Z,9.77
2023-03-23T17:37:48.190Z,8.65
2023-03-23T17:40:59.530Z,7.65
2023-03-23T17:44:01.208Z,9.60
2023-03-23T17:47:03.310Z,8.15
2023-03-23T17:50:11.508Z,10.00
2023-03-23T17:53:15.054Z,10.35
2023-03-23T17:56:16.699Z,10.90
2023-03-23T17:59:19.347Z,8.73
2023-03-23T18:02:21.170Z,9.02
2023-03-23T18:05:24.564Z,10.00
2023-03-23T18:08:26.880Z,9.80
2023-03-23T18:11:28.660Z,10.30
2023-03-23T18:14:30.272Z,9.40
2023-03-23T18:17:32.222Z,11.70
2023-03-23T18:20:34.046Z,8.07
2023-03-23T18:23:46.162Z,11.88
2023-03-23T18:26:51.586Z,9.40
2023-03-23T18:29:53.274Z,10.07
2023-03-23T18:32:54.918Z,11.98
2023-03-23T18:35:58.963Z,8.93
2023-03-23T18:39:00.993Z,9.77
2023-03-23T18:42:02.598Z,10.10
2023-03-23T18:45:04.582Z,11.67
2023-03-23T18:48:07.089Z,10.43
2023-03-23T18:51:09.516Z,8.90
2023-03-23T18:54:11.400Z,10.52
2023-03-23T18:57:13.188Z,10.23
2023-03-23T19:00:15.339Z,9.87
2023-03-23T19:03:17.658Z,11.98
2023-03-23T19:06:22.671Z,9.10
2023-03-23T19:09:24.490Z,11.20
2023-03-23T19:12:26.146Z,11.82
2023-03-23T19:15:27.854Z,11.17
2023-03-23T19:18:29.572Z,9.68
2023-03-23T19:21:32.182Z,12.23
2023-03-23T19:24:34.625Z,10.90
2023-03-23T19:27:53.217Z,10.43
2023-03-23T19:30:59.098Z,11.53
2023-03-23T19:34:01.186Z,11.63
2023-03-23T19:37:05.799Z,11.73
2023-03-23T19:40:31.305Z,11.55
2023-03-23T19:43:34.122Z,11.55
2023-03-23T19:46:36.210Z,11.13
2023-03-23T19:49:38.938Z,10.98
2023-03-23T19:52:42.177Z,12.93
2023-03-23T19:55:43.813Z,11.75
2023-03-23T19:58:46.155Z,12.63
2023-03-23T20:01:48.210Z,12.67
2023-03-23T20:04:49.971Z,10.75
2023-03-23T20:07:52.101Z,11.85
2023-03-23T20:11:02.185Z,11.30
2023-03-23T20:14:03.960Z,11.82
2023-03-23T20:17:09.585Z,12.80
2023-03-23T20:20:11.986Z,11.98
2023-03-23T20:23:13.982Z,12.85
2023-03-23T20:26:19.621Z,11.02
2023-03-23T20:29:21.379Z,11.60
2023-03-23T20:32:23.182Z,11.17
2023-03-23T20:35:24.877Z,10.85
2023-03-23T20:38:27.616Z,11.55
2023-03-23T20:41:29.540Z,16.00
2023-03-23T20:44:34.778Z,10.55
2023-03-23T20:47:37.417Z,11.10
2023-03-23T20:50:39.738Z,10.95
2023-03-23T20:53:41.376Z,10.27
2023-03-23T20:56:43.770Z,11.43
2023-03-23T20:59:45.762Z,9.85
2023-03-23T21:02:49.792Z,11.87
2023-03-23T21:05:51.755Z,18.20
2023-03-23T21:08:53.348Z,10.77
2023-03-23T21:11:55.415Z,11.02
2023-03-23T21:14:57.005Z,11.38
2023-03-23T21:17:58.653Z,11.70
2023-03-23T21:21:01.282Z,12.23
2023-03-23T21:24:03.463Z,11.57
2023-03-23T21:27:05.396Z,14.32
2023-03-23T21:30:08.260Z,12.07
2023-03-23T21:33:09.864Z,13.60
2023-03-23T21:36:11.997Z,13.93
2023-03-23T21:39:15.442Z,12.70
2023-03-23T21:42:17.137Z,14.00
2023-03-23T21:45:21.057Z,14.70
2023-03-23T21:48:29.689Z,14.37
2023-03-23T21:51:35.491Z,14.45
2023-03-23T21:54:37.139Z,16.23
2023-03-23T21:57:40.201Z,14.65
2023-03-23T22:00:42.094Z,15.85
2023-03-23T22:03:44.413Z,15.03
2023-03-23T22:06:46.243Z,14.95
2023-03-23T22:09:47.898Z,16.17
2023-03-23T22:12:52.626Z,17.08
2023-03-23T22:15:58.532Z,16.10
2023-03-23T22:19:02.165Z,17.70
2023-03-23T22:22:06.912Z,17.05
2023-03-23T22:25:08.841Z,16.38
2023-03-23T22:28:10.732Z,15.75
2023-03-23T22:31:17.656Z,19.25
2023-03-23T22:34:20.343Z,17.03
2023-03-23T22:37:21.981Z,18.83
2023-03-23T22:40:24.033Z,17.38
2023-03-23T22:43:26.975Z,18.48
2023-03-23T22:46:28.811Z,18.63
2023-03-23T22:49:30.456Z,15.40
2023-03-23T22:52:32.710Z,19.15
2023-03-23T22:55:34.346Z,17.13
2023-03-23T22:58:36.158Z,17.17
2023-03-23T23:01:38.111Z,16.95
2023-03-23T23:04:39.849Z,19.13
2023-03-23T23:07:41.592Z,15.63
2023-03-23T23:10:46.343Z,17.70
2023-03-23T23:13:49.194Z,17.35
2023-03-23T23:16:51.821Z,16.00
2023-03-23T23:19:53.516Z,18.13
2023-03-23T23:22:55.143Z,20.02
2023-03-23T23:25:57.238Z,18.02
2023-03-23T23:28:58.981Z,16.73
2023-03-23T23:32:02.633Z,18.70
2023-03-23T23:35:05.937Z,16.90
2023-03-23T23:38:09.737Z,17.80
2023-03-23T23:41:11.661Z,17.00
2023-03-23T23:44:13.404Z,19.83
2023-03-23T23:47:15.130Z,19.40
2023-03-23T23:50:17.191Z,16.90
2023-03-23T23:53:22.869Z,17.00
2023-03-23T23:56:25.704Z,13.57
2023-03-23T23:59:28.928Z,17.60
